sensor_id;sensor_type;location;lat;lon;timestamp;temperature;humidity
5834;DHT22;2943;48.012;10.968;2022-12-08T00:01:31;1.80;99.90
5834;DHT22;2943;48.012;10.968;2022-12-08T00:03:58;1.80;99.90
5834;DHT22;2943;48.012;10.968;2022-12-08T00:06:27;1.80;99.90
5834;DHT22;2943;48.012;10.968;2022-12-08T00:09:15;1.70;99.90
5834;DHT22;2943;48.012;10.968;2022-12-08T00:11:49;1.70;99.90
5834;DHT22;2943;48.012;10.968;2022-12-08T00:14:15;1.70;99.90
5834;DHT22;2943;48.012;10.968;2022-12-08T00:16:44;1.70;99.90
5834;DHT22;2943;48.012;10.968;2022-12-08T00:19:10;1.70;99.90
5834;DHT22;2943;48.012;10.968;2022-12-08T00:21:37;1.70;99.90
5834;DHT22;2943;48.012;10.968;2022-12-08T00:24:04;1.70;99.90
5834;DHT22;2943;48.012;10.968;2022-12-08T00:26:32;1.70;99.90
5834;DHT22;2943;48.012;10.968;2022-12-08T00:28:59;1.70;99.90
5834;DHT22;2943;48.012;10.968;2022-12-08T00:31:26;1.70;99.90
5834;DHT22;2943;48.012;10.968;2022-12-08T00:33:54;1.70;99.90
5834;DHT22;2943;48.012;10.968;2022-12-08T00:36:21;1.70;99.90
5834;DHT22;2943;48.012;10.968;2022-12-08T00:38:48;1.70;99.90
5834;DHT22;2943;48.012;10.968;2022-12-08T00:41:17;1.70;99.90
5834;DHT22;2943;48.012;10.968;2022-12-08T00:43:44;1.60;99.90
5834;DHT22;2943;48.012;10.968;2022-12-08T00:46:10;1.60;99.90
5834;DHT22;2943;48.012;10.968;2022-12-08T00:48:37;1.60;99.90
5834;DHT22;2943;48.012;10.968;2022-12-08T00:51:06;1.70;99.90
5834;DHT22;2943;48.012;10.968;2022-12-08T00:53:32;1.70;99.90
5834;DHT22;2943;48.012;10.968;2022-12-08T00:55:59;1.70;99.90
5834;DHT22;2943;48.012;10.968;2022-12-08T00:58:26;1.70;99.90
5834;DHT22;2943;48.012;10.968;2022-12-08T01:00:53;1.70;99.90
5834;DHT22;2943;48.012;10.968;2022-12-08T01:03:20;1.70;99.90
5834;DHT22;2943;48.012;10.968;2022-12-08T01:05:46;1.70;99.90
5834;DHT22;2943;48.012;10.968;2022-12-08T01:08:15;1.70;99.90
5834;DHT22;2943;48.012;10.968;2022-12-08T01:10:41;1.70;99.90
5834;DHT22;2943;48.012;10.968;2022-12-08T01:13:08;1.70;99.90
5834;DHT22;2943;48.012;10.968;2022-12-08T01:15:36;1.70;99.90
5834;DHT22;2943;48.012;10.968;2022-12-08T01:18:03;1.70;99.90
5834;DHT22;2943;48.012;10.968;2022-12-08T01:20:30;1.70;99.90
5834;DHT22;2943;48.012;10.968;2022-12-08T01:22:57;1.70;99.90
5834;DHT22;2943;48.012;10.968;2022-12-08T01:25:25;1.70;99.90
5834;DHT22;2943;48.012;10.968;2022-12-08T01:27:52;1.70;99.90
5834;DHT22;2943;48.012;10.968;2022-12-08T01:30:19;1.80;99.90
5834;DHT22;2943;48.012;10.968;2022-12-08T01:32:46;1.70;99.90
5834;DHT22;2943;48.012;10.968;2022-12-08T01:35:13;1.70;99.90
5834;DHT22;2943;48.012;10.968;2022-12-08T01:37:40;1.60;99.90
5834;DHT22;2943;48.012;10.968;2022-12-08T01:40:08;1.60;99.90
5834;DHT22;2943;48.012;10.968;2022-12-08T01:42:36;1.60;99.90
5834;DHT22;2943;48.012;10.968;2022-12-08T01:45:04;1.60;99.90
5834;DHT22;2943;48.012;10.968;2022-12-08T01:47:36;1.60;99.90
5834;DHT22;2943;48.012;10.968;2022-12-08T01:50:06;1.60;99.90
5834;DHT22;2943;48.012;10.968;2022-12-08T01:52:36;1.60;99.90
5834;DHT22;2943;48.012;10.968;2022-12-08T01:55:07;1.60;99.90
5834;DHT22;2943;48.012;10.968;2022-12-08T01:57:40;1.60;99.90
5834;DHT22;2943;48.012;10.968;2022-12-08T02:00:10;1.60;99.90
5834;DHT22;2943;48.012;10.968;2022-12-08T02:02:45;1.60;99.90
5834;DHT22;2943;48.012;10.968;2022-12-08T02:05:14;1.60;99.90
5834;DHT22;2943;48.012;10.968;2022-12-08T02:07:42;1.70;99.90
5834;DHT22;2943;48.012;10.968;2022-12-08T02:10:11;1.70;99.90
5834;DHT22;2943;48.012;10.968;2022-12-08T02:12:41;1.60;99.90
5834;DHT22;2943;48.012;10.968;2022-12-08T02:15:08;1.60;99.90
5834;DHT22;2943;48.012;10.968;2022-12-08T02:17:48;1.60;99.90
5834;DHT22;2943;48.012;10.968;2022-12-08T02:20:25;1.60;99.90
5834;DHT22;2943;48.012;10.968;2022-12-08T02:23:00;1.60;99.90
5834;DHT22;2943;48.012;10.968;2022-12-08T02:25:41;1.60;99.90
5834;DHT22;2943;48.012;10.968;2022-12-08T02:28:28;1.60;99.90
5834;DHT22;2943;48.012;10.968;2022-12-08T02:31:07;1.60;99.90
5834;DHT22;2943;48.012;10.968;2022-12-08T02:34:12;1.60;99.90
5834;DHT22;2943;48.012;10.968;2022-12-08T02:36:48;1.60;99.90
5834;DHT22;2943;48.012;10.968;2022-12-08T02:39:27;1.60;99.90
5834;DHT22;2943;48.012;10.968;2022-12-08T02:42:01;1.60;99.90
5834;DHT22;2943;48.012;10.968;2022-12-08T02:44:34;1.60;99.90
5834;DHT22;2943;48.012;10.968;2022-12-08T02:47:07;1.50;99.90
5834;DHT22;2943;48.012;10.968;2022-12-08T02:49:36;1.50;99.90
5834;DHT22;2943;48.012;10.968;2022-12-08T02:52:05;1.50;99.90
5834;DHT22;2943;48.012;10.968;2022-12-08T02:54:32;1.50;99.90
5834;DHT22;2943;48.012;10.968;2022-12-08T02:57:11;1.60;99.90
5834;DHT22;2943;48.012;10.968;2022-12-08T02:59:55;1.60;99.90
5834;DHT22;2943;48.012;10.968;2022-12-08T03:02:39;1.60;99.90
5834;DHT22;2943;48.012;10.968;2022-12-08T03:05:17;1.50;99.90
5834;DHT22;2943;48.012;10.968;2022-12-08T03:07:51;1.50;99.90
5834;DHT22;2943;48.012;10.968;2022-12-08T03:10:26;1.50;99.90
5834;DHT22;2943;48.012;10.968;2022-12-08T03:12:57;1.50;99.90
5834;DHT22;2943;48.012;10.968;2022-12-08T03:15:27;1.50;99.90
5834;DHT22;2943;48.012;10.968;2022-12-08T03:17:57;1.50;99.90
5834;DHT22;2943;48.012;10.968;2022-12-08T03:20:28;1.50;99.90
5834;DHT22;2943;48.012;10.968;2022-12-08T03:22:57;1.50;99.90
5834;DHT22;2943;48.012;10.968;2022-12-08T03:25:30;1.50;99.90
5834;DHT22;2943;48.012;10.968;2022-12-08T03:27:58;1.50;99.90
5834;DHT22;2943;48.012;10.968;2022-12-08T03:30:27;1.50;99.90
5834;DHT22;2943;48.012;10.968;2022-12-08T03:33:01;1.50;99.90
5834;DHT22;2943;48.012;10.968;2022-12-08T03:35:32;1.50;99.90
5834;DHT22;2943;48.012;10.968;2022-12-08T03:38:03;1.50;99.90
5834;DHT22;2943;48.012;10.968;2022-12-08T03:40:30;1.50;99.90
5834;DHT22;2943;48.012;10.968;2022-12-08T03:42:57;1.50;99.90
5834;DHT22;2943;48.012;10.968;2022-12-08T03:45:24;1.40;99.90
5834;DHT22;2943;48.012;10.968;2022-12-08T03:47:51;1.50;99.90
5834;DHT22;2943;48.012;10.968;2022-12-08T03:50:18;1.40;99.90
5834;DHT22;2943;48.012;10.968;2022-12-08T03:52:46;1.50;99.90
5834;DHT22;2943;48.012;10.968;2022-12-08T03:55:13;1.50;99.90
5834;DHT22;2943;48.012;10.968;2022-12-08T03:57:41;1.50;99.90
5834;DHT22;2943;48.012;10.968;2022-12-08T04:00:13;1.50;99.90
5834;DHT22;2943;48.012;10.968;2022-12-08T04:02:41;1.50;99.90
5834;DHT22;2943;48.012;10.968;2022-12-08T04:05:08;1.50;99.90
5834;DHT22;2943;48.012;10.968;2022-12-08T04:07:35;1.50;99.90
5834;DHT22;2943;48.012;10.968;2022-12-08T04:10:05;1.50;99.90
5834;DHT22;2943;48.012;10.968;2022-12-08T04:12:32;1.50;99.90
5834;DHT22;2943;48.012;10.968;2022-12-08T04:14:58;1.50;99.90
5834;DHT22;2943;48.012;10.968;2022-12-08T04:17:26;1.50;99.90
5834;DHT22;2943;48.012;10.968;2022-12-08T04:19:53;1.50;99.90
5834;DHT22;2943;48.012;10.968;2022-12-08T04:22:20;1.50;99.90
5834;DHT22;2943;48.012;10.968;2022-12-08T04:24:47;1.50;99.90
5834;DHT22;2943;48.012;10.968;2022-12-08T04:27:15;1.50;99.90
5834;DHT22;2943;48.012;10.968;2022-12-08T04:29:42;1.40;99.90
5834;DHT22;2943;48.012;10.968;2022-12-08T04:32:08;1.40;99.90
5834;DHT22;2943;48.012;10.968;2022-12-08T04:34:35;1.50;99.90
5834;DHT22;2943;48.012;10.968;2022-12-08T04:37:02;1.40;99.90
5834;DHT22;2943;48.012;10.968;2022-12-08T04:39:29;1.40;99.90
5834;DHT22;2943;48.012;10.968;2022-12-08T04:41:56;1.50;99.90
5834;DHT22;2943;48.012;10.968;2022-12-08T04:44:24;1.40;99.90
5834;DHT22;2943;48.012;10.968;2022-12-08T04:46:51;1.50;99.90
5834;DHT22;2943;48.012;10.968;2022-12-08T04:49:17;1.50;99.90
5834;DHT22;2943;48.012;10.968;2022-12-08T04:51:44;1.50;99.90
5834;DHT22;2943;48.012;10.968;2022-12-08T04:54:11;1.50;99.90
5834;DHT22;2943;48.012;10.968;2022-12-08T04:56:38;1.50;99.90
5834;DHT22;2943;48.012;10.968;2022-12-08T04:59:05;1.50;99.90
5834;DHT22;2943;48.012;10.968;2022-12-08T05:01:33;1.50;99.90
5834;DHT22;2943;48.012;10.968;2022-12-08T05:04:00;1.40;99.90
5834;DHT22;2943;48.012;10.968;2022-12-08T05:06:27;1.40;99.90
5834;DHT22;2943;48.012;10.968;2022-12-08T05:08:54;1.40;99.90
5834;DHT22;2943;48.012;10.968;2022-12-08T05:11:21;1.30;99.90
5834;DHT22;2943;48.012;10.968;2022-12-08T05:13:48;1.30;99.90
5834;DHT22;2943;48.012;10.968;2022-12-08T05:16:14;1.30;99.90
5834;DHT22;2943;48.012;10.968;2022-12-08T05:18:43;1.30;99.90
5834;DHT22;2943;48.012;10.968;2022-12-08T05:21:10;1.30;99.90
5834;DHT22;2943;48.012;10.968;2022-12-08T05:23:37;1.40;99.90
5834;DHT22;2943;48.012;10.968;2022-12-08T05:26:04;1.40;99.90
5834;DHT22;2943;48.012;10.968;2022-12-08T05:28:31;1.30;99.90
5834;DHT22;2943;48.012;10.968;2022-12-08T05:30:58;1.30;99.90
5834;DHT22;2943;48.012;10.968;2022-12-08T05:33:25;1.30;99.90
5834;DHT22;2943;48.012;10.968;2022-12-08T05:35:53;1.30;99.90
5834;DHT22;2943;48.012;10.968;2022-12-08T05:38:20;1.30;99.90
5834;DHT22;2943;48.012;10.968;2022-12-08T05:40:47;1.30;99.90
5834;DHT22;2943;48.012;10.968;2022-12-08T05:43:14;1.30;99.90
5834;DHT22;2943;48.012;10.968;2022-12-08T05:45:41;1.30;99.90
5834;DHT22;2943;48.012;10.968;2022-12-08T05:48:08;1.30;99.90
5834;DHT22;2943;48.012;10.968;2022-12-08T05:50:34;1.30;99.90
5834;DHT22;2943;48.012;10.968;2022-12-08T05:53:03;1.30;99.90
5834;DHT22;2943;48.012;10.968;2022-12-08T05:55:30;1.30;99.90
5834;DHT22;2943;48.012;10.968;2022-12-08T05:57:57;1.30;99.90
5834;DHT22;2943;48.012;10.968;2022-12-08T06:00:24;1.30;99.90
5834;DHT22;2943;48.012;10.968;2022-12-08T06:02:51;1.30;99.90
5834;DHT22;2943;48.012;10.968;2022-12-08T06:05:18;1.30;99.90
5834;DHT22;2943;48.012;10.968;2022-12-08T06:07:44;1.30;99.90
5834;DHT22;2943;48.012;10.968;2022-12-08T06:10:13;1.30;99.90
5834;DHT22;2943;48.012;10.968;2022-12-08T06:12:39;1.30;99.90
5834;DHT22;2943;48.012;10.968;2022-12-08T06:15:07;1.40;99.90
5834;DHT22;2943;48.012;10.968;2022-12-08T06:17:34;1.40;99.90
5834;DHT22;2943;48.012;10.968;2022-12-08T06:20:01;1.30;99.90
5834;DHT22;2943;48.012;10.968;2022-12-08T06:22:28;1.30;99.90
5834;DHT22;2943;48.012;10.968;2022-12-08T06:24:55;1.30;99.90
5834;DHT22;2943;48.012;10.968;2022-12-08T06:27:23;1.30;99.90
5834;DHT22;2943;48.012;10.968;2022-12-08T06:29:50;1.30;99.90
5834;DHT22;2943;48.012;10.968;2022-12-08T06:32:17;1.30;99.90
5834;DHT22;2943;48.012;10.968;2022-12-08T06:34:44;1.30;99.90
5834;DHT22;2943;48.012;10.968;2022-12-08T06:37:11;1.30;99.90
5834;DHT22;2943;48.012;10.968;2022-12-08T06:39:38;1.30;99.90
5834;DHT22;2943;48.012;10.968;2022-12-08T06:42:05;1.20;99.90
5834;DHT22;2943;48.012;10.968;2022-12-08T06:44:47;1.20;99.90
5834;DHT22;2943;48.012;10.968;2022-12-08T06:47:14;1.30;99.90
5834;DHT22;2943;48.012;10.968;2022-12-08T06:49:40;1.20;99.90
5834;DHT22;2943;48.012;10.968;2022-12-08T06:52:07;1.20;99.90
5834;DHT22;2943;48.012;10.968;2022-12-08T06:54:34;1.30;99.90
5834;DHT22;2943;48.012;10.968;2022-12-08T06:57:01;1.20;99.90
5834;DHT22;2943;48.012;10.968;2022-12-08T06:59:28;1.20;99.90
5834;DHT22;2943;48.012;10.968;2022-12-08T07:01:56;1.20;99.90
5834;DHT22;2943;48.012;10.968;2022-12-08T07:04:23;1.20;99.90
5834;DHT22;2943;48.012;10.968;2022-12-08T07:06:50;1.20;99.90
5834;DHT22;2943;48.012;10.968;2022-12-08T07:09:17;1.20;99.90
5834;DHT22;2943;48.012;10.968;2022-12-08T07:11:43;1.10;99.90
5834;DHT22;2943;48.012;10.968;2022-12-08T07:14:11;1.20;99.90
5834;DHT22;2943;48.012;10.968;2022-12-08T07:16:38;1.30;99.90
5834;DHT22;2943;48.012;10.968;2022-12-08T07:19:06;1.40;99.90
5834;DHT22;2943;48.012;10.968;2022-12-08T07:21:33;1.40;99.90
5834;DHT22;2943;48.012;10.968;2022-12-08T07:24:00;1.40;99.90
5834;DHT22;2943;48.012;10.968;2022-12-08T07:26:27;1.40;99.90
5834;DHT22;2943;48.012;10.968;2022-12-08T07:28:54;1.50;99.90
5834;DHT22;2943;48.012;10.968;2022-12-08T07:31:22;1.40;99.90
5834;DHT22;2943;48.012;10.968;2022-12-08T07:33:50;1.50;99.90
5834;DHT22;2943;48.012;10.968;2022-12-08T07:36:18;1.50;99.90
5834;DHT22;2943;48.012;10.968;2022-12-08T07:38:45;1.50;99.90
5834;DHT22;2943;48.012;10.968;2022-12-08T07:41:12;1.50;99.90
5834;DHT22;2943;48.012;10.968;2022-12-08T07:43:39;1.50;99.90
5834;DHT22;2943;48.012;10.968;2022-12-08T07:46:06;1.50;99.90
5834;DHT22;2943;48.012;10.968;2022-12-08T07:48:33;1.50;99.90
5834;DHT22;2943;48.012;10.968;2022-12-08T07:51:01;1.50;99.90
5834;DHT22;2943;48.012;10.968;2022-12-08T07:53:30;1.60;99.90
5834;DHT22;2943;48.012;10.968;2022-12-08T07:55:57;1.60;99.90
5834;DHT22;2943;48.012;10.968;2022-12-08T07:58:24;1.60;99.90
5834;DHT22;2943;48.012;10.968;2022-12-08T08:00:52;1.60;99.90
5834;DHT22;2943;48.012;10.968;2022-12-08T08:03:18;1.60;99.90
5834;DHT22;2943;48.012;10.968;2022-12-08T08:05:46;1.60;99.90
5834;DHT22;2943;48.012;10.968;2022-12-08T08:08:14;1.70;99.90
5834;DHT22;2943;48.012;10.968;2022-12-08T08:10:43;1.70;99.90
5834;DHT22;2943;48.012;10.968;2022-12-08T08:13:10;1.70;99.90
5834;DHT22;2943;48.012;10.968;2022-12-08T08:15:37;1.70;99.90
5834;DHT22;2943;48.012;10.968;2022-12-08T08:18:04;1.70;99.90
5834;DHT22;2943;48.012;10.968;2022-12-08T08:20:31;1.70;99.90
5834;DHT22;2943;48.012;10.968;2022-12-08T08:22:58;1.70;99.90
5834;DHT22;2943;48.012;10.968;2022-12-08T08:25:25;1.70;99.90
5834;DHT22;2943;48.012;10.968;2022-12-08T08:27:53;1.80;99.90
5834;DHT22;2943;48.012;10.968;2022-12-08T08:30:20;1.80;99.90
5834;DHT22;2943;48.012;10.968;2022-12-08T08:32:47;1.80;99.90
5834;DHT22;2943;48.012;10.968;2022-12-08T08:35:14;1.80;99.90
5834;DHT22;2943;48.012;10.968;2022-12-08T08:37:40;1.90;99.90
5834;DHT22;2943;48.012;10.968;2022-12-08T08:40:08;1.90;99.90
5834;DHT22;2943;48.012;10.968;2022-12-08T08:42:35;1.90;99.90
5834;DHT22;2943;48.012;10.968;2022-12-08T08:45:04;1.90;99.90
5834;DHT22;2943;48.012;10.968;2022-12-08T08:47:30;1.90;99.90
5834;DHT22;2943;48.012;10.968;2022-12-08T08:49:57;1.90;99.90
5834;DHT22;2943;48.012;10.968;2022-12-08T08:52:24;1.90;99.90
5834;DHT22;2943;48.012;10.968;2022-12-08T08:54:51;2.00;99.90
5834;DHT22;2943;48.012;10.968;2022-12-08T08:57:18;2.00;99.90
5834;DHT22;2943;48.012;10.968;2022-12-08T08:59:44;2.00;99.90
5834;DHT22;2943;48.012;10.968;2022-12-08T09:02:16;2.10;99.90
5834;DHT22;2943;48.012;10.968;2022-12-08T09:04:43;2.00;99.90
5834;DHT22;2943;48.012;10.968;2022-12-08T09:07:10;1.90;99.90
5834;DHT22;2943;48.012;10.968;2022-12-08T09:09:37;1.80;99.90
5834;DHT22;2943;48.012;10.968;2022-12-08T09:12:04;1.80;99.90
5834;DHT22;2943;48.012;10.968;2022-12-08T09:14:31;1.80;99.90
5834;DHT22;2943;48.012;10.968;2022-12-08T09:16:58;1.70;99.90
5834;DHT22;2943;48.012;10.968;2022-12-08T09:19:26;1.70;99.90
5834;DHT22;2943;48.012;10.968;2022-12-08T09:21:53;1.70;99.90
5834;DHT22;2943;48.012;10.968;2022-12-08T09:24:20;1.70;99.90
5834;DHT22;2943;48.012;10.968;2022-12-08T09:26:48;1.70;99.90
5834;DHT22;2943;48.012;10.968;2022-12-08T09:29:15;1.60;99.90
5834;DHT22;2943;48.012;10.968;2022-12-08T09:31:42;1.70;99.90
5834;DHT22;2943;48.012;10.968;2022-12-08T09:34:10;1.70;99.90
5834;DHT22;2943;48.012;10.968;2022-12-08T09:36:39;1.70;99.90
5834;DHT22;2943;48.012;10.968;2022-12-08T09:39:06;1.70;99.90
5834;DHT22;2943;48.012;10.968;2022-12-08T09:41:34;1.70;99.90
5834;DHT22;2943;48.012;10.968;2022-12-08T09:44:15;1.80;99.90
5834;DHT22;2943;48.012;10.968;2022-12-08T09:46:47;1.80;99.90
5834;DHT22;2943;48.012;10.968;2022-12-08T09:49:20;1.80;99.90
5834;DHT22;2943;48.012;10.968;2022-12-08T09:51:49;1.80;99.90
5834;DHT22;2943;48.012;10.968;2022-12-08T09:54:18;1.80;99.90
5834;DHT22;2943;48.012;10.968;2022-12-08T09:56:47;1.90;99.90
5834;DHT22;2943;48.012;10.968;2022-12-08T09:59:21;1.90;99.90
5834;DHT22;2943;48.012;10.968;2022-12-08T10:01:49;2.00;99.90
5834;DHT22;2943;48.012;10.968;2022-12-08T10:04:21;2.00;99.90
5834;DHT22;2943;48.012;10.968;2022-12-08T10:06:57;2.10;99.90
5834;DHT22;2943;48.012;10.968;2022-12-08T10:09:32;2.10;99.90
5834;DHT22;2943;48.012;10.968;2022-12-08T10:12:07;2.10;99.90
5834;DHT22;2943;48.012;10.968;2022-12-08T10:14:41;2.20;99.90
5834;DHT22;2943;48.012;10.968;2022-12-08T10:17:15;2.20;99.90
5834;DHT22;2943;48.012;10.968;2022-12-08T10:19:44;2.20;99.90
5834;DHT22;2943;48.012;10.968;2022-12-08T10:22:21;2.20;99.90
5834;DHT22;2943;48.012;10.968;2022-12-08T10:24:54;2.30;99.90
5834;DHT22;2943;48.012;10.968;2022-12-08T10:27:24;2.20;99.90
5834;DHT22;2943;48.012;10.968;2022-12-08T10:29:55;2.30;99.90
5834;DHT22;2943;48.012;10.968;2022-12-08T10:32:22;2.30;99.90
5834;DHT22;2943;48.012;10.968;2022-12-08T10:35:04;2.40;99.90
5834;DHT22;2943;48.012;10.968;2022-12-08T10:37:34;2.40;99.90
5834;DHT22;2943;48.012;10.968;2022-12-08T10:40:07;2.40;99.90
5834;DHT22;2943;48.012;10.968;2022-12-08T10:42:38;2.50;99.90
5834;DHT22;2943;48.012;10.968;2022-12-08T10:45:21;2.50;99.90
5834;DHT22;2943;48.012;10.968;2022-12-08T10:47:56;2.50;99.90
5834;DHT22;2943;48.012;10.968;2022-12-08T10:50:32;2.50;99.90
5834;DHT22;2943;48.012;10.968;2022-12-08T10:53:11;2.50;99.90
5834;DHT22;2943;48.012;10.968;2022-12-08T10:55:40;2.50;99.90
5834;DHT22;2943;48.012;10.968;2022-12-08T10:58:23;2.50;99.90
5834;DHT22;2943;48.012;10.968;2022-12-08T11:00:50;2.50;99.90
5834;DHT22;2943;48.012;10.968;2022-12-08T11:03:23;2.50;99.90
5834;DHT22;2943;48.012;10.968;2022-12-08T11:05:55;2.50;99.90
5834;DHT22;2943;48.012;10.968;2022-12-08T11:08:24;2.50;99.90
5834;DHT22;2943;48.012;10.968;2022-12-08T11:10:52;2.50;99.90
5834;DHT22;2943;48.012;10.968;2022-12-08T11:13:21;2.50;99.90
5834;DHT22;2943;48.012;10.968;2022-12-08T11:15:49;2.50;99.90
5834;DHT22;2943;48.012;10.968;2022-12-08T11:18:23;2.50;99.90
5834;DHT22;2943;48.012;10.968;2022-12-08T11:20:57;2.50;99.90
5834;DHT22;2943;48.012;10.968;2022-12-08T11:23:27;2.50;99.90
5834;DHT22;2943;48.012;10.968;2022-12-08T11:26:00;2.50;99.90
5834;DHT22;2943;48.012;10.968;2022-12-08T11:28:28;2.50;99.90
5834;DHT22;2943;48.012;10.968;2022-12-08T11:31:38;2.50;99.90
5834;DHT22;2943;48.012;10.968;2022-12-08T11:34:08;2.50;99.90
5834;DHT22;2943;48.012;10.968;2022-12-08T11:36:46;2.60;99.90
5834;DHT22;2943;48.012;10.968;2022-12-08T11:39:39;2.50;99.90
5834;DHT22;2943;48.012;10.968;2022-12-08T11:42:22;2.50;99.90
5834;DHT22;2943;48.012;10.968;2022-12-08T11:45:01;2.60;99.90
5834;DHT22;2943;48.012;10.968;2022-12-08T11:47:45;2.60;99.90
5834;DHT22;2943;48.012;10.968;2022-12-08T11:50:28;2.60;99.90
5834;DHT22;2943;48.012;10.968;2022-12-08T11:53:16;2.50;99.90
5834;DHT22;2943;48.012;10.968;2022-12-08T11:55:56;2.50;99.90
5834;DHT22;2943;48.012;10.968;2022-12-08T11:58:30;2.50;99.90
5834;DHT22;2943;48.012;10.968;2022-12-08T12:01:07;2.50;99.90
5834;DHT22;2943;48.012;10.968;2022-12-08T12:03:50;2.50;99.90
5834;DHT22;2943;48.012;10.968;2022-12-08T12:09:28;2.50;99.90
5834;DHT22;2943;48.012;10.968;2022-12-08T12:12:06;2.50;99.90
5834;DHT22;2943;48.012;10.968;2022-12-08T12:17:40;2.40;99.90
5834;DHT22;2943;48.012;10.968;2022-12-08T12:20:14;2.40;99.90
5834;DHT22;2943;48.012;10.968;2022-12-08T12:22:44;2.40;99.90
5834;DHT22;2943;48.012;10.968;2022-12-08T12:25:17;2.30;99.90
5834;DHT22;2943;48.012;10.968;2022-12-08T12:27:46;2.30;99.90
5834;DHT22;2943;48.012;10.968;2022-12-08T12:30:22;2.40;99.90
5834;DHT22;2943;48.012;10.968;2022-12-08T12:32:53;2.30;99.90
5834;DHT22;2943;48.012;10.968;2022-12-08T12:35:32;2.30;99.90
5834;DHT22;2943;48.012;10.968;2022-12-08T12:38:03;2.30;99.90
5834;DHT22;2943;48.012;10.968;2022-12-08T12:40:50;2.30;99.90
5834;DHT22;2943;48.012;10.968;2022-12-08T12:43:29;2.40;99.90
5834;DHT22;2943;48.012;10.968;2022-12-08T12:49:48;2.40;99.90
5834;DHT22;2943;48.012;10.968;2022-12-08T12:52:43;2.50;99.90
5834;DHT22;2943;48.012;10.968;2022-12-08T12:55:27;2.50;99.90
5834;DHT22;2943;48.012;10.968;2022-12-08T12:57:56;2.50;99.90
5834;DHT22;2943;48.012;10.968;2022-12-08T13:00:26;2.60;99.90
5834;DHT22;2943;48.012;10.968;2022-12-08T13:02:55;2.60;99.90
5834;DHT22;2943;48.012;10.968;2022-12-08T13:05:24;2.70;99.90
5834;DHT22;2943;48.012;10.968;2022-12-08T13:07:53;2.70;99.90
5834;DHT22;2943;48.012;10.968;2022-12-08T13:10:24;2.70;99.90
5834;DHT22;2943;48.012;10.968;2022-12-08T13:13:14;2.70;99.90
5834;DHT22;2943;48.012;10.968;2022-12-08T13:15:49;2.80;99.90
5834;DHT22;2943;48.012;10.968;2022-12-08T13:18:19;2.90;99.90
5834;DHT22;2943;48.012;10.968;2022-12-08T13:20:50;2.80;99.90
5834;DHT22;2943;48.012;10.968;2022-12-08T13:26:14;2.80;99.90
5834;DHT22;2943;48.012;10.968;2022-12-08T13:31:49;2.90;99.90
5834;DHT22;2943;48.012;10.968;2022-12-08T13:34:21;3.00;99.90
5834;DHT22;2943;48.012;10.968;2022-12-08T13:37:05;3.10;99.90
5834;DHT22;2943;48.012;10.968;2022-12-08T13:39:41;3.10;99.90
5834;DHT22;2943;48.012;10.968;2022-12-08T13:42:18;3.10;99.90
5834;DHT22;2943;48.012;10.968;2022-12-08T13:44:53;3.10;99.90
5834;DHT22;2943;48.012;10.968;2022-12-08T13:47:35;3.10;99.90
5834;DHT22;2943;48.012;10.968;2022-12-08T13:50:09;3.00;99.90
5834;DHT22;2943;48.012;10.968;2022-12-08T13:52:43;3.00;99.90
5834;DHT22;2943;48.012;10.968;2022-12-08T13:55:16;3.00;99.90
5834;DHT22;2943;48.012;10.968;2022-12-08T13:57:47;3.10;99.90
5834;DHT22;2943;48.012;10.968;2022-12-08T14:00:17;3.00;99.90
5834;DHT22;2943;48.012;10.968;2022-12-08T14:02:47;3.00;99.90
5834;DHT22;2943;48.012;10.968;2022-12-08T14:05:16;3.10;99.90
5834;DHT22;2943;48.012;10.968;2022-12-08T14:07:46;3.10;99.90
5834;DHT22;2943;48.012;10.968;2022-12-08T14:10:16;3.00;99.90
5834;DHT22;2943;48.012;10.968;2022-12-08T14:12:51;3.00;99.90
5834;DHT22;2943;48.012;10.968;2022-12-08T14:15:20;3.00;99.90
5834;DHT22;2943;48.012;10.968;2022-12-08T14:17:52;3.00;99.90
5834;DHT22;2943;48.012;10.968;2022-12-08T14:20:22;3.00;99.90
5834;DHT22;2943;48.012;10.968;2022-12-08T14:22:51;3.10;99.90
5834;DHT22;2943;48.012;10.968;2022-12-08T14:25:19;3.10;99.90
5834;DHT22;2943;48.012;10.968;2022-12-08T14:27:47;3.10;99.90
5834;DHT22;2943;48.012;10.968;2022-12-08T14:30:18;3.00;99.90
5834;DHT22;2943;48.012;10.968;2022-12-08T14:32:48;3.00;99.90
5834;DHT22;2943;48.012;10.968;2022-12-08T14:35:21;2.90;99.90
5834;DHT22;2943;48.012;10.968;2022-12-08T14:37:49;2.80;99.90
5834;DHT22;2943;48.012;10.968;2022-12-08T14:40:21;2.80;99.90
5834;DHT22;2943;48.012;10.968;2022-12-08T14:42:51;2.80;99.90
5834;DHT22;2943;48.012;10.968;2022-12-08T14:45:18;2.70;99.90
5834;DHT22;2943;48.012;10.968;2022-12-08T14:47:46;2.70;99.90
5834;DHT22;2943;48.012;10.968;2022-12-08T14:50:36;2.60;99.90
5834;DHT22;2943;48.012;10.968;2022-12-08T14:53:10;2.60;99.90
5834;DHT22;2943;48.012;10.968;2022-12-08T14:55:37;2.60;99.90
5834;DHT22;2943;48.012;10.968;2022-12-08T14:58:04;2.60;99.90
5834;DHT22;2943;48.012;10.968;2022-12-08T15:00:32;2.60;99.90
5834;DHT22;2943;48.012;10.968;2022-12-08T15:03:05;2.60;99.90
5834;DHT22;2943;48.012;10.968;2022-12-08T15:05:32;2.60;99.90
5834;DHT22;2943;48.012;10.968;2022-12-08T15:08:03;2.60;99.90
5834;DHT22;2943;48.012;10.968;2022-12-08T15:10:32;2.60;99.90
5834;DHT22;2943;48.012;10.968;2022-12-08T15:13:05;2.60;99.90
5834;DHT22;2943;48.012;10.968;2022-12-08T15:15:45;2.60;99.90
5834;DHT22;2943;48.012;10.968;2022-12-08T15:18:17;2.70;99.90
5834;DHT22;2943;48.012;10.968;2022-12-08T15:20:46;2.60;99.90
5834;DHT22;2943;48.012;10.968;2022-12-08T15:23:27;2.60;99.90
5834;DHT22;2943;48.012;10.968;2022-12-08T15:25:56;2.60;99.90
5834;DHT22;2943;48.012;10.968;2022-12-08T15:28:25;2.60;99.90
5834;DHT22;2943;48.012;10.968;2022-12-08T15:30:53;2.60;99.90
5834;DHT22;2943;48.012;10.968;2022-12-08T15:33:21;2.60;99.90
5834;DHT22;2943;48.012;10.968;2022-12-08T15:35:48;2.60;99.90
5834;DHT22;2943;48.012;10.968;2022-12-08T15:38:19;2.50;99.90
5834;DHT22;2943;48.012;10.968;2022-12-08T15:40:49;2.50;99.90
5834;DHT22;2943;48.012;10.968;2022-12-08T15:43:16;2.50;99.90
5834;DHT22;2943;48.012;10.968;2022-12-08T15:45:43;2.50;99.90
5834;DHT22;2943;48.012;10.968;2022-12-08T15:48:15;2.50;99.90
5834;DHT22;2943;48.012;10.968;2022-12-08T15:50:43;2.50;99.90
5834;DHT22;2943;48.012;10.968;2022-12-08T15:53:10;2.40;99.90
5834;DHT22;2943;48.012;10.968;2022-12-08T15:55:39;2.40;99.90
5834;DHT22;2943;48.012;10.968;2022-12-08T15:58:13;2.40;99.90
5834;DHT22;2943;48.012;10.968;2022-12-08T16:00:41;2.40;99.90
5834;DHT22;2943;48.012;10.968;2022-12-08T16:03:18;2.40;99.90
5834;DHT22;2943;48.012;10.968;2022-12-08T16:05:45;2.40;99.90
5834;DHT22;2943;48.012;10.968;2022-12-08T16:08:13;2.40;99.90
5834;DHT22;2943;48.012;10.968;2022-12-08T16:10:41;2.40;99.90
5834;DHT22;2943;48.012;10.968;2022-12-08T16:13:14;2.40;99.90
5834;DHT22;2943;48.012;10.968;2022-12-08T16:15:59;2.30;99.90
5834;DHT22;2943;48.012;10.968;2022-12-08T16:18:29;2.30;99.90
5834;DHT22;2943;48.012;10.968;2022-12-08T16:20:57;2.30;99.90
5834;DHT22;2943;48.012;10.968;2022-12-08T16:23:23;2.20;99.90
5834;DHT22;2943;48.012;10.968;2022-12-08T16:25:51;2.20;99.90
5834;DHT22;2943;48.012;10.968;2022-12-08T16:28:19;2.20;99.90
5834;DHT22;2943;48.012;10.968;2022-12-08T16:30:46;2.20;99.90
5834;DHT22;2943;48.012;10.968;2022-12-08T16:33:13;2.10;99.90
5834;DHT22;2943;48.012;10.968;2022-12-08T16:35:41;2.10;99.90
5834;DHT22;2943;48.012;10.968;2022-12-08T16:38:12;2.10;99.90